»·PEaware :: N236LK KSNA-KSNA

N236LK :: KSNA-KSNA

FLIGHT INFORMATION

Flight Status: Arrived
Operator: Privately registered:
United States
More flights under this callsign
Pilot: Jean Francois S. (616)
Aircraft: CESSNA 206 STATIONAIR
(C206)
More flights by this aircraft type
Origin: KSNA John Wayne-Orange Co
United States
Destination: KSNA John Wayne-Orange Co
United States
More flights between these airports :: More routes between these airports
Route: +
File this flight plan on PilotEdge
Remarks:
Altitude:
(Current/Filed)
0ft
Speed:
(Current/Filed)
0kts
Departed: 29-Mar-19 12:25 PM
Arrived: 29-Mar-19 01:43 PM
Distance/Time
Traveled:
2nm/1:17
Distance/Time
To Go:
Arrived

Flight Plot

Page will automatically refresh every two minutes.


Map Options




Map Legend


Flown Route
Filed Route
Departure Airport
Arrival Airport
Navaid (VOR, NDB)
Fix

Horizontal Profiles

Position Reports

Time Latitude Longitude Heading Altitude Ground
Speed
29-Mar-19 12:12 33.672131 -117.873255 27 59ft 0kts
29-Mar-19 12:13 33.672131 -117.873255 27 59ft 0kts
29-Mar-19 12:14 33.672131 -117.873255 27 59ft 0kts
29-Mar-19 12:15 33.672131 -117.873255 27 59ft 0kts
29-Mar-19 12:16 33.672131 -117.873255 27 59ft 0kts
29-Mar-19 12:17 33.672042 -117.872664 58 59ft 4kts
29-Mar-19 12:18 33.673698 -117.871598 30 59ft 12kts
29-Mar-19 12:19 33.676812 -117.869615 26 59ft 15kts
29-Mar-19 12:20 33.680075 -117.867732 29 59ft 14kts
29-Mar-19 12:21 33.681198 -117.866406 119 59ft 0kts
29-Mar-19 12:22 33.681198 -117.866406 119 59ft 0kts
29-Mar-19 12:23 33.681085 -117.866165 122 59ft 4kts
29-Mar-19 12:24 33.674376 -117.869943 214 563ft 67kts
29-Mar-19 12:25 33.656863 -117.869245 110 1690ft 108kts
29-Mar-19 12:26 33.656780 -117.829551 90 2258ft 134kts
29-Mar-19 12:27 33.660214 -117.783485 85 2662ft 151kts
29-Mar-19 12:28 33.669018 -117.730918 77 3067ft 157kts
29-Mar-19 12:29 33.679201 -117.677726 90 3624ft 150kts
29-Mar-19 12:30 33.679909 -117.639209 90 4419ft 137kts
29-Mar-19 12:31 33.680323 -117.600709 90 5303ft 134kts
29-Mar-19 12:32 33.679836 -117.558353 90 6316ft 136kts
29-Mar-19 12:33 33.692562 -117.513109 60 7418ft 133kts
29-Mar-19 12:34 33.705638 -117.475824 60 7523ft 168kts
29-Mar-19 12:35 33.719958 -117.436243 59 7515ft 177kts
29-Mar-19 12:36 33.737092 -117.389028 59 7511ft 175kts
29-Mar-19 12:37 33.756354 -117.336151 60 7507ft 172kts
29-Mar-19 12:38 33.776321 -117.281362 60 7507ft 171kts
29-Mar-19 12:39 33.796267 -117.226688 60 7507ft 172kts
29-Mar-19 12:40 33.815797 -117.173302 60 7507ft 172kts
29-Mar-19 12:41 33.835125 -117.120587 60 7507ft 169kts
29-Mar-19 12:42 33.854875 -117.067504 59 7505ft 175kts
29-Mar-19 12:43 33.876861 -117.009995 59 7503ft 176kts
29-Mar-19 12:44 33.898050 -116.955871 59 7565ft 174kts
29-Mar-19 12:45 33.919213 -116.901068 75 7566ft 179kts
29-Mar-19 12:46 33.926238 -116.830245 79 7566ft 181kts
29-Mar-19 12:47 33.915110 -116.763623 100 7145ft 195kts
29-Mar-19 12:48 33.903347 -116.698658 100 6350ft 202kts
29-Mar-19 12:49 33.891883 -116.631588 100 5551ft 205kts
29-Mar-19 12:50 33.892904 -116.571047 121 4272ft 167kts
29-Mar-19 12:51 33.865594 -116.539517 146 2524ft 117kts
29-Mar-19 12:52 33.842939 -116.522782 182 1463ft 73kts
29-Mar-19 12:53 33.838304 -116.499379 132 1940ft 88kts
29-Mar-19 12:54 33.823381 -116.499169 302 613ft 86kts
29-Mar-19 12:55 33.834684 -116.509604 351 436ft 11kts
29-Mar-19 12:56 33.834948 -116.509846 234 436ft 0kts
29-Mar-19 12:57 33.834948 -116.509846 234 436ft 0kts
29-Mar-19 12:58 33.834948 -116.509846 234 436ft 0kts
29-Mar-19 12:59 33.834948 -116.509846 234 436ft 0kts
29-Mar-19 13:00 33.834932 -116.509874 234 436ft 1kts
29-Mar-19 13:01 33.834359 -116.510186 153 436ft 5kts
29-Mar-19 13:02 33.831169 -116.507375 143 427ft 19kts
29-Mar-19 13:03 33.826941 -116.503620 145 414ft 19kts
29-Mar-19 13:04 33.824157 -116.501144 142 404ft 16kts
29-Mar-19 13:05 33.824103 -116.500471 54 403ft 0kts
29-Mar-19 13:06 33.824103 -116.500471 54 403ft 0kts
29-Mar-19 13:07 33.835559 -116.509922 316 559ft 143kts
29-Mar-19 13:08 33.866403 -116.531623 331 1987ft 128kts
29-Mar-19 13:09 33.896315 -116.548037 315 3343ft 116kts
29-Mar-19 13:10 33.916692 -116.574914 256 4524ft 116kts
29-Mar-19 13:11 33.903024 -116.608514 243 5590ft 117kts
29-Mar-19 13:12 33.885287 -116.639843 237 6624ft 118kts
29-Mar-19 13:13 33.865885 -116.671370 238 7563ft 121kts
29-Mar-19 13:14 33.842045 -116.700017 215 8443ft 129kts
29-Mar-19 13:15 33.815112 -116.732567 250 8388ft 165kts
29-Mar-19 13:16 33.797590 -116.782824 250 8353ft 162kts
29-Mar-19 13:17 33.780217 -116.832396 250 8351ft 161kts
29-Mar-19 13:18 33.763088 -116.881232 250 8346ft 161kts
29-Mar-19 13:19 33.746122 -116.928841 250 8472ft 156kts
29-Mar-19 13:20 33.747513 -116.977799 277 8486ft 151kts
29-Mar-19 13:21 33.751283 -117.026131 277 8500ft 149kts
29-Mar-19 13:22 33.754727 -117.074626 277 8512ft 149kts
29-Mar-19 13:23 33.757326 -117.115101 277 8523ft 150kts
29-Mar-19 13:24 33.759430 -117.150012 277 8526ft 150kts
29-Mar-19 13:25 33.761931 -117.191802 277 8526ft 150kts
29-Mar-19 13:26 33.764469 -117.234418 277 8525ft 150kts
29-Mar-19 13:27 33.766931 -117.275870 277 8468ft 153kts
29-Mar-19 13:28 33.770029 -117.324905 277 8001ft 162kts
29-Mar-19 13:29 33.770578 -117.369952 266 7581ft 166kts
29-Mar-19 13:30 33.765617 -117.418185 266 7136ft 167kts
29-Mar-19 13:31 33.760729 -117.467746 266 6679ft 167kts
29-Mar-19 13:32 33.756115 -117.517178 266 6222ft 167kts
29-Mar-19 13:33 33.751687 -117.568546 266 5746ft 166kts
29-Mar-19 13:34 33.748259 -117.612357 266 5339ft 166kts
29-Mar-19 13:35 33.745412 -117.655241 265 4943ft 166kts
29-Mar-19 13:36 33.742850 -117.703324 265 4517ft 167kts
29-Mar-19 13:37 33.741121 -117.745235 265 4149ft 169kts
29-Mar-19 13:38 33.738653 -117.782895 246 3611ft 151kts
29-Mar-19 13:39 33.721631 -117.816085 233 2411ft 160kts
29-Mar-19 13:40 33.704184 -117.848784 212 1245ft 131kts
29-Mar-19 13:41 33.684511 -117.861461 206 211ft 68kts
29-Mar-19 13:42 33.677038 -117.865841 150 59ft 2kts
29-Mar-19 13:43 33.676963 -117.865755 127 59ft 0kts
29-Mar-19 13:44 33.676963 -117.865755 127 59ft 0kts
29-Mar-19 13:45 33.676963 -117.865755 127 59ft 0kts
29-Mar-19 13:46 33.676963 -117.865755 127 59ft 0kts
29-Mar-19 13:47 33.676963 -117.865755 127 59ft 0kts
29-Mar-19 13:48 33.676963 -117.865755 127 59ft 0kts
29-Mar-19 13:49 33.676963 -117.865755 127 59ft 0kts
29-Mar-19 13:50 33.676963 -117.865755 127 59ft 0kts
29-Mar-19 13:51 33.676915 -117.865316 32 59ft 7kts
29-Mar-19 13:52 33.679567 -117.863589 26 59ft 16kts
29-Mar-19 13:53 33.679882 -117.864339 214 59ft 15kts
29-Mar-19 13:54 33.663321 -117.873948 200 975ft 99kts
29-Mar-19 13:55 33.659331 -117.895015 323 2383ft 114kts
29-Mar-19 13:56 33.686978 -117.908887 338 2525ft 159kts

Navigation Log

Ident Type
Flight plan parsing failed, navigation log unavailable